Bering Dawn — WDF2490 — position and weather

sailwx.info

Track history (hours):
 
Tides and Currents Weather Stations Pressure Air Temp Water Temp Dewpoint Dewpoint Depression Visibility Wind Speed Wind Dir Waves Ship Positions

Bering Dawn

Owner: Bering Dawn, LLC, Gretna, LA. More information available from US FCC via Universal Licensing System and Coast Guard Vessel Documentation Center.

Last reported at 2018-Jul-18 22:54 UTC. Time now 2018-Jul-20 03:05 UTC.
Position N 32°45' W 079°52'.

; draft 4 m.

Type: Tow > 200 m length. MMSI: 367311550.

Date/timePositionNaut miles runAvg speedWind from/ knotsBaromVisibWave heightAir tempDewpointWater temp
2018-Jul-18 22:54N 32°45' W 079°52'2 4.2
2018-Jul-18 22:27N 32°45' W 079°54'0 0.0
2018-Jul-18 21:58N 32°45' W 079°54'0 0.0
2018-Jul-18 21:19N 32°45' W 079°54'0 0.0
2018-Jul-18 21:00N 32°45' W 079°54'  
2018-Jul-15 19:09N 32°45' W 079°51'2 6.6
2018-Jul-15 18:54N 32°46' W 079°53'1 3.2
2018-Jul-15 18:30N 32°45' W 079°55'1 0.3
2018-Jul-15 16:37N 32°45' W 079°54'0 0.1
2018-Jul-15 16:30N 32°45' W 079°54'0 0.0
2018-Jul-15 15:45N 32°45' W 079°54'0 0.0
2018-Jul-15 15:24N 32°45' W 079°54'0 0.0
2018-Jul-15 14:58N 32°45' W 079°54'0 0.0
2018-Jul-15 14:23N 32°45' W 079°54'0 0.0
2018-Jul-15 14:00N 32°45' W 079°54'0 0.0
2018-Jul-15 13:30N 32°45' W 079°54'0 0.0
2018-Jul-15 13:00N 32°45' W 079°54'0 0.0
2018-Jul-15 12:29N 32°45' W 079°54'0 0.1
2018-Jul-15 12:00N 32°45' W 079°54'0 0.2
2018-Jul-15 11:30N 32°45' W 079°54'0 0.0
2018-Jul-15 10:58N 32°45' W 079°54'0 0.0
2018-Jul-15 10:27N 32°45' W 079°54'0 0.1
2018-Jul-15 09:48N 32°45' W 079°54'0 0.0
2018-Jul-15 04:30N 32°45' W 079°54'0 0.1
2018-Jul-15 03:55N 32°45' W 079°54'0 0.0
2018-Jul-15 01:09N 32°45' W 079°54'0 0.0
2018-Jul-15 01:00N 32°45' W 079°54'0 0.0
2018-Jul-15 00:30N 32°45' W 079°54'0 0.0
2018-Jul-15 00:00N 32°45' W 079°54'0 0.0
2018-Jul-14 23:30N 32°45' W 079°54'0 0.0
2018-Jul-14 23:00N 32°45' W 079°54'0 0.5
2018-Jul-14 22:30N 32°46' W 079°54'0 0.2
2018-Jul-14 22:00N 32°45' W 079°55'0 0.7
2018-Jul-14 21:30N 32°45' W 079°54'0 0.7
2018-Jul-14 21:00N 32°46' W 079°55'0 0.1
2018-Jul-14 20:29N 32°45' W 079°55'1 1.3
2018-Jul-14 20:00N 32°45' W 079°54'0 0.1
2018-Jul-14 19:29N 32°45' W 079°54'0 0.9
2018-Jul-14 19:00N 32°45' W 079°54'0 0.0
2018-Jul-14 18:27N 32°45' W 079°54'0 0.0
2018-Jul-14 18:00N 32°45' W 079°54'0 0.0
2018-Jul-14 17:30N 32°45' W 079°54'0 0.0
2018-Jul-14 17:00N 32°45' W 079°54'0 0.0
2018-Jul-14 16:24N 32°45' W 079°54'0 0.0
2018-Jul-14 15:56N 32°45' W 079°54'0 0.0
2018-Jul-14 15:30N 32°45' W 079°54'0 0.0
2018-Jul-14 14:59N 32°45' W 079°54'0 0.0
2018-Jul-14 14:30N 32°45' W 079°54'1 0.2
2018-Jul-14 08:03N 32°46' W 079°53'0 4.1
2018-Jul-14 08:00N 32°46' W 079°53'1 1.5
2018-Jul-14 07:28N 32°45' W 079°54'0 0.3
2018-Jul-14 06:51N 32°45' W 079°54'0 0.3
2018-Jul-14 06:30N 32°45' W 079°54'0 0.5
2018-Jul-14 05:58N 32°45' W 079°54'0 0.0
2018-Jul-14 05:30N 32°45' W 079°54'0 0.0
2018-Jul-14 04:59N 32°45' W 079°54'0 0.0
2018-Jul-14 04:30N 32°45' W 079°54'5 1.3
2018-Jul-14 00:30N 32°50' W 079°57'0 0.0
2018-Jul-13 23:57N 32°50' W 079°57'0 0.0
2018-Jul-13 23:29N 32°50' W 079°57'0 0.0
2018-Jul-13 22:58N 32°50' W 079°57'2 4.6
2018-Jul-13 22:30N 32°48' W 079°55'3 0.8
2018-Jul-13 18:13N 32°45' W 079°53'1 3.8
2018-Jul-13 17:59N 32°45' W 079°54'0 0.0
2018-Jul-13 17:30N 32°45' W 079°54'0 0.0
2018-Jul-13 16:55N 32°45' W 079°54'0 0.0
2018-Jul-13 16:30N 32°45' W 079°54'0 0.0
2018-Jul-13 16:00N 32°45' W 079°54'0 0.0
2018-Jul-13 15:30N 32°45' W 079°54'0 0.0
2018-Jul-13 11:30N 32°45' W 079°54'0 0.0
2018-Jul-13 11:00N 32°45' W 079°54'0 0.0
2018-Jul-13 10:18N 32°45' W 079°54'0 0.0
2018-Jul-13 09:58N 32°45' W 079°54'0 0.1
2018-Jul-13 09:30N 32°45' W 079°54'0 0.1
2018-Jul-13 09:00N 32°45' W 079°54'0 0.1
2018-Jul-13 08:21N 32°45' W 079°54'0 0.0
2018-Jul-13 07:57N 32°45' W 079°54'0 0.0
2018-Jul-13 07:30N 32°45' W 079°54'0 0.0
2018-Jul-13 07:00N 32°45' W 079°54'0 0.0
2018-Jul-13 06:30N 32°45' W 079°54'0 0.0
2018-Jul-13 06:00N 32°45' W 079°54'0 0.0
2018-Jul-13 05:30N 32°45' W 079°54'0 0.0
2018-Jul-13 05:00N 32°45' W 079°54'0 0.0
2018-Jul-13 04:30N 32°45' W 079°54'0 0.0
2018-Jul-13 04:00N 32°45' W 079°54'0 0.0
2018-Jul-13 03:30N 32°45' W 079°54'0 0.0
2018-Jul-13 03:00N 32°45' W 079°54'0 0.0
2018-Jul-12 23:26N 32°45' W 079°54'0 0.0
2018-Jul-12 22:58N 32°45' W 079°54'0 0.0
2018-Jul-12 22:29N 32°45' W 079°54'0 0.1
2018-Jul-12 22:00N 32°45' W 079°54'0 0.0
2018-Jul-12 21:30N 32°45' W 079°54'0 0.0
2018-Jul-12 20:58N 32°45' W 079°54'0 0.0
2018-Jul-12 20:29N 32°45' W 079°54'0 0.0
2018-Jul-12 20:00N 32°45' W 079°54'0 0.0
2018-Jul-12 19:30N 32°45' W 079°54'0 0.1
2018-Jul-12 19:00N 32°45' W 079°54'0 0.1
2018-Jul-12 18:30N 32°45' W 079°54'0 0.0
2018-Jul-12 18:00N 32°45' W 079°54'0 0.0
2018-Jul-12 17:30N 32°45' W 079°54'0 0.0
2018-Jul-12 17:00N 32°45' W 079°54'0 0.0
2018-Jul-12 16:30N 32°45' W 079°54'0 0.0
2018-Jul-12 15:58N 32°45' W 079°54'0 0.0
2018-Jul-12 15:31N 32°45' W 079°54'0 0.0
2018-Jul-12 15:00N 32°45' W 079°54'0 0.0
2018-Jul-12 14:30N 32°45' W 079°54'0 0.0
2018-Jul-12 14:00N 32°45' W 079°54'2 0.1
2018-Jul-11 19:37N 32°45' W 079°51'1 7.4
2018-Jul-11 19:26N 32°46' W 079°53'1 2.6
2018-Jul-11 19:00N 32°45' W 079°54'1 1.5
2018-Jul-11 18:30N 32°45' W 079°53'1 0.0
2018-Jul-10 21:10N 32°45' W 079°54'1 5.1
2018-Jul-10 21:00N 32°46' W 079°55'4 7.5
2018-Jul-10 20:27N 32°50' W 079°57'0 0.0
2018-Jul-10 13:20N 32°50' W 079°57'0 0.0
2018-Jul-10 12:43N 32°50' W 079°57'0 0.0
2018-Jul-10 12:27N 32°50' W 079°57'0 0.0
2018-Jul-10 12:00N 32°50' W 079°57'0 0.0
2018-Jul-10 11:30N 32°50' W 079°57'0 0.0
2018-Jul-10 10:59N 32°50' W 079°57'0 0.0
2018-Jul-10 09:28N 32°50' W 079°57'0 0.0
2018-Jul-10 09:00N 32°50' W 079°57'0 0.0
2018-Jul-10 08:30N 32°50' W 079°57'0 0.0
2018-Jul-10 08:00N 32°50' W 079°57'0 0.0
2018-Jul-09 19:42N 32°50' W 079°57'0 0.0
2018-Jul-09 19:25N 32°50' W 079°57'0 0.0
2018-Jul-09 18:52N 32°50' W 079°57'0 0.0
2018-Jul-09 18:14N 32°50' W 079°57'0 0.0
2018-Jul-09 17:52N 32°50' W 079°57'0 0.0
2018-Jul-09 16:54N 32°50' W 079°57'  
Track history (hours):
 
Tides and Currents Weather Stations Pressure Air Temp Water Temp Dewpoint Dewpoint Depression Visibility Wind Speed Wind Dir Waves Ship Positions

Bering Dawn

Owner: Bering Dawn, LLC, Gretna, LA. More information available from US FCC via Universal Licensing System and Coast Guard Vessel Documentation Center.

Last reported at 2018-Jul-18 22:54 UTC. Time now 2018-Jul-20 03:05 UTC.
Position N 32°45' W 079°52'.

; draft 4 m.

Type: Tow > 200 m length. MMSI: 367311550.

Date/timePositionNaut miles runAvg speedWind from/ knotsBaromVisibWave heightAir tempDewpointWater temp
2018-Jul-18 22:54N 32°45' W 079°52'2 4.2
2018-Jul-18 22:27N 32°45' W 079°54'0 0.0
2018-Jul-18 21:58N 32°45' W 079°54'0 0.0
2018-Jul-18 21:19N 32°45' W 079°54'0 0.0
2018-Jul-18 21:00N 32°45' W 079°54'  
2018-Jul-15 19:09N 32°45' W 079°51'2 6.6
2018-Jul-15 18:54N 32°46' W 079°53'1 3.2
2018-Jul-15 18:30N 32°45' W 079°55'1 0.3
2018-Jul-15 16:37N 32°45' W 079°54'0 0.1
2018-Jul-15 16:30N 32°45' W 079°54'0 0.0
2018-Jul-15 15:45N 32°45' W 079°54'0 0.0
2018-Jul-15 15:24N 32°45' W 079°54'0 0.0
2018-Jul-15 14:58N 32°45' W 079°54'0 0.0
2018-Jul-15 14:23N 32°45' W 079°54'0 0.0
2018-Jul-15 14:00N 32°45' W 079°54'0 0.0
2018-Jul-15 13:30N 32°45' W 079°54'0 0.0
2018-Jul-15 13:00N 32°45' W 079°54'0 0.0
2018-Jul-15 12:29N 32°45' W 079°54'0 0.1
2018-Jul-15 12:00N 32°45' W 079°54'0 0.2
2018-Jul-15 11:30N 32°45' W 079°54'0 0.0
2018-Jul-15 10:58N 32°45' W 079°54'0 0.0
2018-Jul-15 10:27N 32°45' W 079°54'0 0.1
2018-Jul-15 09:48N 32°45' W 079°54'0 0.0
2018-Jul-15 04:30N 32°45' W 079°54'0 0.1
2018-Jul-15 03:55N 32°45' W 079°54'0 0.0
2018-Jul-15 01:09N 32°45' W 079°54'0 0.0
2018-Jul-15 01:00N 32°45' W 079°54'0 0.0
2018-Jul-15 00:30N 32°45' W 079°54'0 0.0
2018-Jul-15 00:00N 32°45' W 079°54'0 0.0
2018-Jul-14 23:30N 32°45' W 079°54'0 0.0
2018-Jul-14 23:00N 32°45' W 079°54'0 0.5
2018-Jul-14 22:30N 32°46' W 079°54'0 0.2
2018-Jul-14 22:00N 32°45' W 079°55'0 0.7
2018-Jul-14 21:30N 32°45' W 079°54'0 0.7
2018-Jul-14 21:00N 32°46' W 079°55'0 0.1
2018-Jul-14 20:29N 32°45' W 079°55'1 1.3
2018-Jul-14 20:00N 32°45' W 079°54'0 0.1
2018-Jul-14 19:29N 32°45' W 079°54'0 0.9
2018-Jul-14 19:00N 32°45' W 079°54'0 0.0
2018-Jul-14 18:27N 32°45' W 079°54'0 0.0
2018-Jul-14 18:00N 32°45' W 079°54'0 0.0
2018-Jul-14 17:30N 32°45' W 079°54'0 0.0
2018-Jul-14 17:00N 32°45' W 079°54'0 0.0
2018-Jul-14 16:24N 32°45' W 079°54'0 0.0
2018-Jul-14 15:56N 32°45' W 079°54'0 0.0
2018-Jul-14 15:30N 32°45' W 079°54'0 0.0
2018-Jul-14 14:59N 32°45' W 079°54'0 0.0
2018-Jul-14 14:30N 32°45' W 079°54'1 0.2
2018-Jul-14 08:03N 32°46' W 079°53'0 4.1
2018-Jul-14 08:00N 32°46' W 079°53'1 1.5
2018-Jul-14 07:28N 32°45' W 079°54'0 0.3
2018-Jul-14 06:51N 32°45' W 079°54'0 0.3
2018-Jul-14 06:30N 32°45' W 079°54'0 0.5
2018-Jul-14 05:58N 32°45' W 079°54'0 0.0
2018-Jul-14 05:30N 32°45' W 079°54'0 0.0
2018-Jul-14 04:59N 32°45' W 079°54'0 0.0
2018-Jul-14 04:30N 32°45' W 079°54'5 1.3
2018-Jul-14 00:30N 32°50' W 079°57'0 0.0
2018-Jul-13 23:57N 32°50' W 079°57'0 0.0
2018-Jul-13 23:29N 32°50' W 079°57'0 0.0
2018-Jul-13 22:58N 32°50' W 079°57'2 4.6
2018-Jul-13 22:30N 32°48' W 079°55'3 0.8
2018-Jul-13 18:13N 32°45' W 079°53'1 3.8
2018-Jul-13 17:59N 32°45' W 079°54'0 0.0
2018-Jul-13 17:30N 32°45' W 079°54'0 0.0
2018-Jul-13 16:55N 32°45' W 079°54'0 0.0
2018-Jul-13 16:30N 32°45' W 079°54'0 0.0
2018-Jul-13 16:00N 32°45' W 079°54'0 0.0
2018-Jul-13 15:30N 32°45' W 079°54'0 0.0
2018-Jul-13 11:30N 32°45' W 079°54'0 0.0
2018-Jul-13 11:00N 32°45' W 079°54'0 0.0
2018-Jul-13 10:18N 32°45' W 079°54'0 0.0
2018-Jul-13 09:58N 32°45' W 079°54'0 0.1
2018-Jul-13 09:30N 32°45' W 079°54'0 0.1
2018-Jul-13 09:00N 32°45' W 079°54'0 0.1
2018-Jul-13 08:21N 32°45' W 079°54'0 0.0
2018-Jul-13 07:57N 32°45' W 079°54'0 0.0
2018-Jul-13 07:30N 32°45' W 079°54'0 0.0
2018-Jul-13 07:00N 32°45' W 079°54'0 0.0
2018-Jul-13 06:30N 32°45' W 079°54'0 0.0
2018-Jul-13 06:00N 32°45' W 079°54'0 0.0
2018-Jul-13 05:30N 32°45' W 079°54'0 0.0
2018-Jul-13 05:00N 32°45' W 079°54'0 0.0
2018-Jul-13 04:30N 32°45' W 079°54'0 0.0
2018-Jul-13 04:00N 32°45' W 079°54'0 0.0
2018-Jul-13 03:30N 32°45' W 079°54'0 0.0
2018-Jul-13 03:00N 32°45' W 079°54'0 0.0
2018-Jul-12 23:26N 32°45' W 079°54'0 0.0
2018-Jul-12 22:58N 32°45' W 079°54'0 0.0
2018-Jul-12 22:29N 32°45' W 079°54'0 0.1
2018-Jul-12 22:00N 32°45' W 079°54'0 0.0
2018-Jul-12 21:30N 32°45' W 079°54'0 0.0
2018-Jul-12 20:58N 32°45' W 079°54'0 0.0
2018-Jul-12 20:29N 32°45' W 079°54'0 0.0
2018-Jul-12 20:00N 32°45' W 079°54'0 0.0
2018-Jul-12 19:30N 32°45' W 079°54'0 0.1
2018-Jul-12 19:00N 32°45' W 079°54'0 0.1
2018-Jul-12 18:30N 32°45' W 079°54'0 0.0
2018-Jul-12 18:00N 32°45' W 079°54'0 0.0
2018-Jul-12 17:30N 32°45' W 079°54'0 0.0
2018-Jul-12 17:00N 32°45' W 079°54'0 0.0
2018-Jul-12 16:30N 32°45' W 079°54'0 0.0
2018-Jul-12 15:58N 32°45' W 079°54'0 0.0
2018-Jul-12 15:31N 32°45' W 079°54'0 0.0
2018-Jul-12 15:00N 32°45' W 079°54'0 0.0
2018-Jul-12 14:30N 32°45' W 079°54'0 0.0
2018-Jul-12 14:00N 32°45' W 079°54'2 0.1
2018-Jul-11 19:37N 32°45' W 079°51'1 7.4
2018-Jul-11 19:26N 32°46' W 079°53'1 2.6
2018-Jul-11 19:00N 32°45' W 079°54'1 1.5
2018-Jul-11 18:30N 32°45' W 079°53'1 0.0
2018-Jul-10 21:10N 32°45' W 079°54'1 5.1
2018-Jul-10 21:00N 32°46' W 079°55'4 7.5
2018-Jul-10 20:27N 32°50' W 079°57'0 0.0
2018-Jul-10 13:20N 32°50' W 079°57'0 0.0
2018-Jul-10 12:43N 32°50' W 079°57'0 0.0
2018-Jul-10 12:27N 32°50' W 079°57'0 0.0
2018-Jul-10 12:00N 32°50' W 079°57'0 0.0
2018-Jul-10 11:30N 32°50' W 079°57'0 0.0
2018-Jul-10 10:59N 32°50' W 079°57'0 0.0
2018-Jul-10 09:28N 32°50' W 079°57'0 0.0
2018-Jul-10 09:00N 32°50' W 079°57'0 0.0
2018-Jul-10 08:30N 32°50' W 079°57'0 0.0
2018-Jul-10 08:00N 32°50' W 079°57'0 0.0
2018-Jul-09 19:42N 32°50' W 079°57'0 0.0
2018-Jul-09 19:25N 32°50' W 079°57'0 0.0
2018-Jul-09 18:52N 32°50' W 079°57'0 0.0
2018-Jul-09 18:14N 32°50' W 079°57'0 0.0
2018-Jul-09 17:52N 32°50' W 079°57'0 0.0
2018-Jul-09 16:54N 32°50' W 079°57'  

Dump ship's entire track history